메인 페이지
METAR-TAF:

METAR-TAF

공항 :

Bobby L. Chain Municipal Airport

Hattiesburg, 미시시피, 미국

위도: 31-15-54N, 경도: 089-15-11W, 고도: 46m

현재 날씨관측

예보는 9분 전, 23:32시(UTC)에 발표되었습니다.
여러 방향의 바람 4kt
온도 24°C
습도 89%
기압 1011 hPa
시정: 16.1km
고도 4300ft 상공 구름 많음
고도 7000ft 상공 흐림
뇌우, 약한비

METAR: KHBG 262332Z AUTO VRB04KT 10SM -TSRA BKN043 OVC070 24/22 A2986 RMK AO2 LTG DSNT ALQDS TSB26 P0000 T02390217

시각: 18:41 (23:41 UTC)

예보

예보는 6 시간 14분 전, 17:27시(UTC)에 발표되었습니다.
예보 대상 시간: 26일 18시부터 27일 18시까지 (UTC)
남남서5kt
시정: 9.7km
고도 2500ft 상공 구름 조금
고도 4000ft 상공 구름 많음, 적란운.
소나기, 시계 내 뇌우
27일 0100시부터 (UTC)
여러 방향의 바람 3kt
시정: 10km
고도 2500ft 상공 구름 조금
고도 5000ft 상공 구름 보통
시계 내 소나기
27일 1100시부터 (UTC)
kt
시정: 6.4km
고도 1500ft 상공 흐림
박무
27일 1330시부터 (UTC)
동북동4kt
시정: 10km
고도 2000ft 상공 구름 보통

TAF: KHBG 261727Z 2618/2718 21005KT 6SM SHRA VCTS FEW025 BKN040CB FM270100 VRB03KT P6SM VCSH FEW025 SCT050 FM271100 00000KT 4SM BR OVC015 FM271330 06004KT P6SM SCT020

4,000개 이상의 공항 관측 자료 및 예보 (METAR 및 TAF 보고).

지도상에서 검색 가능한 기상관측소가 노란 점과 빨간 점으로 표시되어 있습니다.

기상관측소 명을 보려면 표시 위로 마우스를 이동하세요.

날씨 관측과 예보를 보려면 클릭하세요.

지도 변경 : 확대하려면 엑스 표시가 있는 녹색 버튼, 축소하려면 빼기 표시가 있는 녹색 버튼, 다음 페이지의 지도를 보려면 녹색 화살표를 클릭하세요.


METAR-TAF: